Time,TemperatureF,DewpointF,PressureIn,WindDirection,WindDirectionDegrees,WindSpeedMPH,WindSpeedGustMPH,Humidity,HourlyPrecipIn,Conditions,Clouds,dailyrainin,SoftwareType,DateUTC
2013-04-15 00:00:00,56.9,28.8,29.90,WNW,291,0.0,9.0,34,0.00,,,0.00,Wunderground v.1.15,2013-04-15 07:00:00,
2013-04-15 00:05:00,57.3,27.7,29.90,WNW,291,1.0,11.0,32,0.00,,,0.00,Wunderground v.1.15,2013-04-15 07:05:00,
2013-04-15 00:45:00,56.6,28.5,29.89,North,354,3.0,12.0,34,0.00,,,0.00,Wunderground v.1.15,2013-04-15 07:45:00,
2013-04-15 00:50:00,55.7,29.8,29.89,NNW,348,2.0,12.0,37,0.00,,,0.00,Wunderground v.1.15,2013-04-15 07:50:00,
2013-04-15 00:55:00,53.5,36.3,29.89,NNW,343,4.0,12.0,52,0.00,,,0.00,Wunderground v.1.15,2013-04-15 07:55:00,
2013-04-15 01:00:00,51.3,37.4,29.89,NW,321,6.0,12.0,59,0.00,,,0.00,Wunderground v.1.15,2013-04-15 08:00:00,
2013-04-15 01:05:00,50.5,36.7,29.89,NNW,327,5.0,14.0,59,0.00,,,0.00,Wunderground v.1.15,2013-04-15 08:05:00,
2013-04-15 01:10:00,50.5,36.7,29.89,North,350,5.0,5.0,59,0.00,,,0.00,Wunderground v.1.15,2013-04-15 08:10:00,
2013-04-15 01:15:00,50.8,35.7,29.89,NW,320,4.0,14.0,56,0.00,,,0.00,Wunderground v.1.15,2013-04-15 08:15:00,
2013-04-15 01:25:00,51.7,34.6,29.89,NW,324,3.0,14.0,52,0.00,,,0.00,Wunderground v.1.15,2013-04-15 08:25:00,
2013-04-15 01:30:00,52.2,34.1,29.89,NW,318,1.0,14.0,50,0.00,,,0.00,Wunderground v.1.15,2013-04-15 08:30:00,
2013-04-15 01:35:00,52.5,33.4,29.88,NW,315,2.0,14.0,48,0.00,,,0.00,Wunderground v.1.15,2013-04-15 08:35:00,
2013-04-15 01:40:00,52.8,32.6,29.89,NW,315,2.0,2.0,46,0.00,,,0.00,Wunderground v.1.15,2013-04-15 08:40:00,
2013-04-15 01:45:00,52.5,34.4,29.88,NW,322,1.0,5.0,50,0.00,,,0.00,Wunderground v.1.15,2013-04-15 08:45:00,
2013-04-15 01:50:00,51.5,36.3,29.88,NNW,328,2.0,2.0,56,0.00,,,0.00,Wunderground v.1.15,2013-04-15 08:50:00,
2013-04-15 01:55:00,50.8,37.0,29.88,NNW,328,1.0,13.0,59,0.00,,,0.00,Wunderground v.1.15,2013-04-15 08:55:00,
2013-04-15 02:00:00,50.0,37.1,29.88,NNW,328,0.0,13.0,61,0.00,,,0.00,Wunderground v.1.15,2013-04-15 09:00:00,
2013-04-15 02:05:00,49.5,36.2,29.88,NNW,328,0.0,13.0,60,0.00,,,0.00,Wunderground v.1.15,2013-04-15 09:05:00,
2013-04-15 02:10:00,49.4,36.1,29.88,NNW,329,0.0,7.0,60,0.00,,,0.00,Wunderground v.1.15,2013-04-15 09:10:00,
2013-04-15 02:15:00,49.4,36.1,29.88,NNW,329,0.0,7.0,60,0.00,,,0.00,Wunderground v.1.15,2013-04-15 09:15:00,
2013-04-15 02:20:00,49.0,36.1,29.88,NNW,329,1.0,1.0,61,0.00,,,0.00,Wunderground v.1.15,2013-04-15 09:20:00,
2013-04-15 02:25:00,48.8,36.4,29.88,NNW,329,1.0,7.0,62,0.00,,,0.00,Wunderground v.1.15,2013-04-15 09:25:00,
2013-04-15 02:30:00,48.5,36.5,29.87,NW,314,2.0,7.0,63,0.00,,,0.00,Wunderground v.1.15,2013-04-15 09:30:00,
2013-04-15 02:35:00,48.3,37.1,29.87,NW,305,3.0,8.0,65,0.00,,,0.00,Wunderground v.1.15,2013-04-15 09:35:00,
2013-04-15 02:45:00,48.0,36.8,29.87,NNE,14,1.0,8.0,65,0.00,,,0.00,Wunderground v.1.15,2013-04-15 09:45:00,
2013-04-15 02:50:00,47.9,36.3,29.87,NNE,14,0.0,8.0,64,0.00,,,0.00,Wunderground v.1.15,2013-04-15 09:50:00,
2013-04-15 03:00:00,49.7,35.5,29.87,North,354,0.0,8.0,58,0.00,,,0.00,Wunderground v.1.15,2013-04-15 10:00:00,
2013-04-15 03:05:00,48.8,35.9,29.87,North,354,1.0,8.0,61,0.00,,,0.00,Wunderground v.1.15,2013-04-15 10:05:00,
2013-04-15 03:15:00,47.4,35.0,29.88,North,353,0.0,6.0,62,0.00,,,0.00,Wunderground v.1.15,2013-04-15 10:15:00,
2013-04-15 03:20:00,47.2,34.4,29.88,NNE,18,0.0,6.0,61,0.00,,,0.00,Wunderground v.1.15,2013-04-15 10:20:00,
2013-04-15 03:30:00,46.9,36.9,29.87,NNE,26,0.0,6.0,68,0.00,,,0.00,Wunderground v.1.15,2013-04-15 10:30:00,
2013-04-15 03:35:00,46.8,35.6,29.88,NNE,23,1.0,6.0,65,0.00,,,0.00,Wunderground v.1.15,2013-04-15 10:35:00,
2013-04-15 03:45:00,46.6,35.8,29.88,NNE,17,1.0,6.0,66,0.00,,,0.00,Wunderground v.1.15,2013-04-15 10:45:00,
2013-04-15 03:50:00,46.4,35.7,29.89,North,7,0.0,6.0,66,0.00,,,0.00,Wunderground v.1.15,2013-04-15 10:50:00,
2013-04-15 03:55:00,46.2,36.2,29.88,North,7,0.0,6.0,68,0.00,,,0.00,Wunderground v.1.15,2013-04-15 10:55:00,
2013-04-15 04:05:00,45.7,35.7,29.89,North,7,0.0,6.0,68,0.00,,,0.00,Wunderground v.1.15,2013-04-15 11:05:00,
2013-04-15 04:15:00,45.1,36.6,29.89,North,7,0.0,5.0,72,0.00,,,0.00,Wunderground v.1.15,2013-04-15 11:15:00,
2013-04-15 04:25:00,45.1,37.6,29.89,North,360,1.0,5.0,75,0.00,,,0.00,Wunderground v.1.15,2013-04-15 11:25:00,
2013-04-15 04:30:00,44.9,36.8,29.89,North,360,1.0,1.0,73,0.00,,,0.00,Wunderground v.1.15,2013-04-15 11:30:00,
2013-04-15 04:40:00,45.6,35.3,29.89,North,360,0.0,7.0,67,0.00,,,0.00,Wunderground v.1.15,2013-04-15 11:40:00,
2013-04-15 04:45:00,45.3,33.4,29.90,North,360,0.0,7.0,63,0.00,,,0.00,Wunderground v.1.15,2013-04-15 11:45:00,
2013-04-15 04:50:00,45.4,32.7,29.89,North,360,0.0,7.0,61,0.00,,,0.00,Wunderground v.1.15,2013-04-15 11:50:00,
2013-04-15 05:00:00,45.6,31.2,29.90,North,360,0.0,7.0,57,0.00,,,0.00,Wunderground v.1.15,2013-04-15 12:00:00,
2013-04-15 05:05:00,45.5,31.1,29.90,North,360,0.0,7.0,57,0.00,,,0.00,Wunderground v.1.15,2013-04-15 12:05:00,
2013-04-15 05:15:00,44.9,30.6,29.89,North,360,0.0,0.0,57,0.00,,,0.00,Wunderground v.1.15,2013-04-15 12:15:00,
2013-04-15 05:20:00,45.0,30.7,29.91,North,360,0.0,0.0,57,0.00,,,0.00,Wunderground v.1.15,2013-04-15 12:20:00,
2013-04-15 05:30:00,45.3,31.4,29.90,North,360,0.0,0.0,58,0.00,,,0.00,Wunderground v.1.15,2013-04-15 12:30:00,
2013-04-15 05:40:00,45.6,31.7,29.90,North,360,0.0,5.0,58,0.00,,,0.00,Wunderground v.1.15,2013-04-15 12:40:00,
2013-04-15 05:45:00,45.8,32.3,29.90,North,360,0.0,5.0,59,0.00,,,0.00,Wunderground v.1.15,2013-04-15 12:45:00,
2013-04-15 05:50:00,46.1,32.6,29.91,North,360,0.0,5.0,59,0.00,,,0.00,Wunderground v.1.15,2013-04-15 12:50:00,
2013-04-15 06:00:00,46.1,33.0,29.91,North,360,0.0,5.0,60,0.00,,,0.00,Wunderground v.1.15,2013-04-15 13:00:00,
2013-04-15 06:10:00,46.3,34.0,29.91,North,360,1.0,1.0,62,0.00,,,0.00,Wunderground v.1.15,2013-04-15 13:10:00,
2013-04-15 06:15:00,46.6,34.7,29.91,North,360,1.0,5.0,63,0.00,,,0.00,Wunderground v.1.15,2013-04-15 13:15:00,
2013-04-15 06:20:00,46.8,34.5,29.92,North,360,1.0,1.0,62,0.00,,,0.00,Wunderground v.1.15,2013-04-15 13:20:00,
2013-04-15 06:30:00,46.2,35.1,29.92,North,360,0.0,5.0,65,0.00,,,0.00,Wunderground v.1.15,2013-04-15 13:30:00,
2013-04-15 06:35:00,46.7,35.6,29.92,North,360,0.0,5.0,65,0.00,,,0.00,Wunderground v.1.15,2013-04-15 13:35:00,
2013-04-15 06:45:00,47.6,35.6,29.93,North,360,1.0,5.0,63,0.00,,,0.00,Wunderground v.1.15,2013-04-15 13:45:00,
2013-04-15 06:50:00,47.5,36.3,29.92,North,360,0.0,5.0,65,0.00,,,0.00,Wunderground v.1.15,2013-04-15 13:50:00,
2013-04-15 06:55:00,47.5,35.9,29.93,North,360,0.0,5.0,64,0.00,,,0.00,Wunderground v.1.15,2013-04-15 13:55:00,
2013-04-15 07:05:00,48.9,36.4,29.93,North,350,1.0,6.0,62,0.00,,,0.00,Wunderground v.1.15,2013-04-15 14:05:00,
2013-04-15 07:15:00,50.0,36.2,29.92,North,350,0.0,6.0,59,0.00,,,0.00,Wunderground v.1.15,2013-04-15 14:15:00,
2013-04-15 07:20:00,50.8,35.7,29.93,North,350,0.0,6.0,56,0.00,,,0.00,Wunderground v.1.15,2013-04-15 14:20:00,
2013-04-15 07:30:00,52.3,34.7,29.93,North,350,0.0,6.0,51,0.00,,,0.00,Wunderground v.1.15,2013-04-15 14:30:00,
2013-04-15 07:35:00,52.3,37.5,29.94,NE,34,1.0,6.0,57,0.00,,,0.00,Wunderground v.1.15,2013-04-15 14:35:00,
2013-04-15 07:40:00,52.3,36.1,29.94,NE,34,1.0,1.0,54,0.00,,,0.00,Wunderground v.1.15,2013-04-15 14:40:00,
2013-04-15 07:50:00,53.1,35.9,29.95,NE,34,0.0,5.0,52,0.00,,,0.00,Wunderground v.1.15,2013-04-15 14:50:00,
2013-04-15 08:00:00,54.0,36.3,29.95,NE,34,0.0,5.0,51,0.00,,,0.00,Wunderground v.1.15,2013-04-15 15:00:00,
2013-04-15 08:05:00,53.8,38.0,29.95,NE,44,1.0,5.0,55,0.00,,,0.00,Wunderground v.1.15,2013-04-15 15:05:00,
2013-04-15 08:15:00,54.1,36.9,29.94,NE,44,0.0,5.0,52,0.00,,,0.00,Wunderground v.1.15,2013-04-15 15:15:00,
2013-04-15 08:20:00,54.7,38.4,29.94,NE,44,0.0,5.0,54,0.00,,,0.00,Wunderground v.1.15,2013-04-15 15:20:00,
2013-04-15 08:25:00,54.5,37.2,29.95,NE,44,0.0,5.0,52,0.00,,,0.00,Wunderground v.1.15,2013-04-15 15:25:00,
2013-04-15 08:35:00,55.0,38.2,29.95,NE,44,1.0,5.0,53,0.00,,,0.00,Wunderground v.1.15,2013-04-15 15:35:00,
2013-04-15 08:45:00,55.5,37.7,29.95,NE,44,0.0,5.0,51,0.00,,,0.00,Wunderground v.1.15,2013-04-15 15:45:00,
2013-04-15 08:55:00,56.2,37.8,29.95,ENE,59,1.0,6.0,50,0.00,,,0.00,Wunderground v.1.15,2013-04-15 15:55:00,
2013-04-15 09:00:00,56.6,37.6,29.94,ENE,59,1.0,1.0,49,0.00,,,0.00,Wunderground v.1.15,2013-04-15 16:00:00,
2013-04-15 09:05:00,57.0,37.0,29.95,ENE,59,1.0,7.0,47,0.00,,,0.00,Wunderground v.1.15,2013-04-15 16:05:00,
2013-04-15 09:15:00,58.2,36.9,29.95,ENE,59,0.0,7.0,45,0.00,,,0.00,Wunderground v.1.15,2013-04-15 16:15:00,
2013-04-15 09:20:00,58.3,37.0,29.94,NE,56,1.0,1.0,45,0.00,,,0.00,Wunderground v.1.15,2013-04-15 16:20:00,
2013-04-15 09:25:00,58.6,37.3,29.94,NE,56,1.0,7.0,45,0.00,,,0.00,Wunderground v.1.15,2013-04-15 16:25:00,
2013-04-15 09:35:00,59.8,37.2,29.94,North,2,1.0,7.0,43,0.00,,,0.00,Wunderground v.1.15,2013-04-15 16:35:00,
2013-04-15 09:40:00,60.4,37.2,29.94,North,3,2.0,6.0,42,0.00,,,0.00,Wunderground v.1.15,2013-04-15 16:40:00,
2013-04-15 09:45:00,61.2,37.9,29.94,North,8,3.0,6.0,42,0.00,,,0.00,Wunderground v.1.15,2013-04-15 16:45:00,
2013-04-15 09:55:00,61.6,37.7,29.94,North,9,2.0,6.0,41,0.00,,,0.00,Wunderground v.1.15,2013-04-15 16:55:00,
2013-04-15 10:00:00,62.3,37.0,29.94,North,4,1.0,1.0,39,0.00,,,0.00,Wunderground v.1.15,2013-04-15 17:00:00,
2013-04-15 10:05:00,62.9,38.2,29.94,North,2,0.0,8.0,40,0.00,,,0.00,Wunderground v.1.15,2013-04-15 17:05:00,
2013-04-15 10:15:00,62.4,37.1,29.94,SE,126,2.0,8.0,39,0.00,,,0.00,Wunderground v.1.15,2013-04-15 17:15:00,
2013-04-15 10:20:00,62.9,36.9,29.95,SE,126,4.0,4.0,38,0.00,,,0.00,Wunderground v.1.15,2013-04-15 17:20:00,
2013-04-15 10:25:00,62.7,37.4,29.95,East,80,4.0,8.0,39,0.00,,,0.00,Wunderground v.1.15,2013-04-15 17:25:00,
2013-04-15 10:30:00,61.9,37.3,29.95,East,89,4.0,8.0,40,0.00,,,0.00,Wunderground v.1.15,2013-04-15 17:30:00,
2013-04-15 10:35:00,62.1,36.8,29.95,East,89,4.0,11.0,39,0.00,,,0.00,Wunderground v.1.15,2013-04-15 17:35:00,
2013-04-15 10:40:00,61.9,33.9,29.96,SSE,158,4.0,11.0,35,0.00,,,0.00,Wunderground v.1.15,2013-04-15 17:40:00,
2013-04-15 10:45:00,61.7,33.7,29.96,SSE,152,4.0,11.0,35,0.00,,,0.00,Wunderground v.1.15,2013-04-15 17:45:00,
2013-04-15 10:55:00,62.0,34.0,29.96,SSE,153,3.0,11.0,35,0.00,,,0.00,Wunderground v.1.15,2013-04-15 17:55:00,
2013-04-15 11:00:00,61.8,33.8,29.97,East,84,3.0,3.0,35,0.00,,,0.00,Wunderground v.1.15,2013-04-15 18:00:00,
2013-04-15 11:10:00,62.5,34.5,29.97,East,84,1.0,1.0,35,0.00,,,0.00,Wunderground v.1.15,2013-04-15 18:10:00,
2013-04-15 11:20:00,62.4,34.4,29.96,East,89,2.0,2.0,35,0.00,,,0.00,Wunderground v.1.15,2013-04-15 18:20:00,
2013-04-15 11:30:00,63.2,33.6,29.96,SE,135,1.0,1.0,33,0.00,,,0.00,Wunderground v.1.15,2013-04-15 18:30:00,
2013-04-15 11:35:00,63.6,33.9,29.96,SE,135,1.0,8.0,33,0.00,,,0.00,Wunderground v.1.15,2013-04-15 18:35:00,
2013-04-15 11:40:00,64.5,34.0,29.96,SE,135,1.0,1.0,32,0.00,,,0.00,Wunderground v.1.15,2013-04-15 18:40:00,
2013-04-15 11:50:00,64.8,35.8,29.96,SE,129,1.0,1.0,34,0.00,,,0.00,Wunderground v.1.15,2013-04-15 18:50:00,
2013-04-15 12:00:00,65.2,36.1,29.96,ENE,60,3.0,3.0,34,0.00,,,0.00,Wunderground v.1.15,2013-04-15 19:00:00,
2013-04-15 12:05:00,65.0,36.7,29.96,East,79,5.0,6.0,35,0.00,,,0.00,Wunderground v.1.15,2013-04-15 19:05:00,
2013-04-15 12:15:00,64.8,37.2,29.96,NE,53,5.0,10.0,36,0.00,,,0.00,Wunderground v.1.15,2013-04-15 19:15:00,
2013-04-15 12:20:00,65.1,37.5,29.96,NNE,27,4.0,10.0,36,0.00,,,0.00,Wunderground v.1.15,2013-04-15 19:20:00,
2013-04-15 12:25:00,65.8,38.1,29.96,NE,40,4.0,10.0,36,0.00,,,0.00,Wunderground v.1.15,2013-04-15 19:25:00,
2013-04-15 12:30:00,65.7,38.0,29.96,NNE,19,4.0,4.0,36,0.00,,,0.00,Wunderground v.1.15,2013-04-15 19:30:00,
2013-04-15 12:40:00,64.5,39.0,29.96,NNW,337,10.0,10.0,39,0.00,,,0.00,Wunderground v.1.15,2013-04-15 19:40:00,
2013-04-15 12:45:00,64.9,38.7,29.96,North,3,10.0,17.0,38,0.00,,,0.00,Wunderground v.1.15,2013-04-15 19:45:00,
2013-04-15 12:55:00,64.8,37.9,29.95,NNW,346,9.0,17.0,37,0.00,,,0.00,Wunderground v.1.15,2013-04-15 19:55:00,
2013-04-15 13:00:00,64.9,38.7,29.95,NW,314,11.0,11.0,38,0.00,,,0.00,Wunderground v.1.15,2013-04-15 20:00:00,
2013-04-15 13:05:00,65.3,37.6,29.95,NNW,327,10.0,20.0,36,0.00,,,0.00,Wunderground v.1.15,2013-04-15 20:05:00,
2013-04-15 13:10:00,65.4,38.4,29.95,NW,312,9.0,9.0,37,0.00,,,0.00,Wunderground v.1.15,2013-04-15 20:10:00,
2013-04-15 13:20:00,65.9,38.9,29.96,WNW,293,9.0,20.0,37,0.00,,,0.00,Wunderground v.1.15,2013-04-15 20:20:00,
2013-04-15 13:25:00,65.6,37.9,29.96,NNW,329,9.0,20.0,36,0.00,,,0.00,Wunderground v.1.15,2013-04-15 20:25:00,
2013-04-15 13:30:00,64.7,38.5,29.96,NNW,335,10.0,20.0,38,0.00,,,0.00,Wunderground v.1.15,2013-04-15 20:30:00,
2013-04-15 13:35:00,64.7,38.5,29.96,WNW,298,10.0,20.0,38,0.00,,,0.00,Wunderground v.1.15,2013-04-15 20:35:00,
2013-04-15 13:40:00,64.8,37.2,29.96,NW,312,10.0,20.0,36,0.00,,,0.00,Wunderground v.1.15,2013-04-15 20:40:00,
2013-04-15 13:45:00,64.8,37.9,29.96,WNW,299,9.0,20.0,37,0.00,,,0.00,Wunderground v.1.15,2013-04-15 20:45:00,
2013-04-15 13:50:00,64.7,37.1,29.96,West,281,9.0,9.0,36,0.00,,,0.00,Wunderground v.1.15,2013-04-15 20:50:00,
2013-04-15 13:55:00,64.7,37.1,29.96,WNW,296,9.0,11.0,36,0.00,,,0.00,Wunderground v.1.15,2013-04-15 20:55:00,
2013-04-15 14:00:00,64.5,37.6,29.96,NNW,339,10.0,20.0,37,0.00,,,0.00,Wunderground v.1.15,2013-04-15 21:00:00,
2013-04-15 14:05:00,64.4,37.5,29.96,WNW,289,11.0,20.0,37,0.00,,,0.00,Wunderground v.1.15,2013-04-15 21:05:00,
2013-04-15 14:15:00,65.0,36.7,29.96,WNW,300,9.0,20.0,35,0.00,,,0.00,Wunderground v.1.15,2013-04-15 21:15:00,
2013-04-15 14:20:00,64.4,36.8,29.96,WNW,289,10.0,10.0,36,0.00,,,0.00,Wunderground v.1.15,2013-04-15 21:20:00,
2013-04-15 14:30:00,63.6,36.1,29.95,WNW,296,12.0,12.0,36,0.00,,,0.00,Wunderground v.1.15,2013-04-15 21:30:00,
2013-04-15 14:35:00,64.7,37.1,29.96,WNW,295,10.0,20.0,36,0.00,,,0.00,Wunderground v.1.15,2013-04-15 21:35:00,
2013-04-15 14:40:00,64.1,36.6,29.95,WNW,282,10.0,10.0,36,0.00,,,0.00,Wunderground v.1.15,2013-04-15 21:40:00,
2013-04-15 14:45:00,64.5,36.9,29.95,WNW,301,10.0,20.0,36,0.00,,,0.00,Wunderground v.1.15,2013-04-15 21:45:00,
2013-04-15 14:55:00,65.4,37.0,29.95,NW,314,8.0,20.0,35,0.00,,,0.00,Wunderground v.1.15,2013-04-15 21:55:00,
2013-04-15 15:00:00,64.9,36.6,29.94,NNW,342,8.0,20.0,35,0.00,,,0.00,Wunderground v.1.15,2013-04-15 22:00:00,
2013-04-15 15:05:00,64.4,36.8,29.94,NNW,335,9.0,20.0,36,0.00,,,0.00,Wunderground v.1.15,2013-04-15 22:05:00,
2013-04-15 15:15:00,64.3,36.8,29.94,North,354,10.0,18.0,36,0.00,,,0.00,Wunderground v.1.15,2013-04-15 22:15:00,
2013-04-15 15:20:00,64.1,35.9,29.94,West,276,11.0,11.0,35,0.00,,,0.00,Wunderground v.1.15,2013-04-15 22:20:00,
2013-04-15 15:30:00,64.9,37.3,29.94,NW,317,9.0,18.0,36,0.00,,,0.00,Wunderground v.1.15,2013-04-15 22:30:00,
2013-04-15 15:35:00,65.2,37.6,29.93,NW,309,9.0,20.0,36,0.00,,,0.00,Wunderground v.1.15,2013-04-15 22:35:00,
2013-04-15 15:45:00,64.8,37.2,29.93,WNW,300,8.0,20.0,36,0.00,,,0.00,Wunderground v.1.15,2013-04-15 22:45:00,
2013-04-15 15:50:00,64.4,37.5,29.93,NW,314,9.0,9.0,37,0.00,,,0.00,Wunderground v.1.15,2013-04-15 22:50:00,
2013-04-15 16:00:00,63.9,37.8,29.93,NW,316,10.0,20.0,38,0.00,,,0.00,Wunderground v.1.15,2013-04-15 23:00:00,
2013-04-15 16:05:00,64.5,37.6,29.92,NNW,329,9.0,21.0,37,0.00,,,0.00,Wunderground v.1.15,2013-04-15 23:05:00,
2013-04-15 16:15:00,65.3,37.6,29.92,WNW,296,7.0,21.0,36,0.00,,,0.00,Wunderground v.1.15,2013-04-15 23:15:00,
2013-04-15 16:20:00,65.1,38.2,29.93,NW,319,6.0,6.0,37,0.00,,,0.00,Wunderground v.1.15,2013-04-15 23:20:00,
2013-04-15 16:30:00,63.8,39.0,29.92,NW,310,10.0,21.0,40,0.00,,,0.00,Wunderground v.1.15,2013-04-15 23:30:00,
2013-04-15 16:35:00,64.0,38.5,29.92,NW,306,9.0,21.0,39,0.00,,,0.00,Wunderground v.1.15,2013-04-15 23:35:00,
2013-04-15 16:45:00,63.2,38.5,29.92,NW,304,9.0,18.0,40,0.00,,,0.00,Wunderground v.1.15,2013-04-15 23:45:00,
2013-04-15 16:50:00,62.7,39.3,29.92,NW,316,10.0,10.0,42,0.00,,,0.00,Wunderground v.1.15,2013-04-15 23:50:00,
2013-04-15 17:00:00,62.5,39.7,29.92,NW,309,10.0,10.0,43,0.00,,,0.00,Wunderground v.1.15,2013-04-16 00:00:00,
2013-04-15 17:05:00,62.0,39.2,29.92,WNW,298,10.0,17.0,43,0.00,,,0.00,Wunderground v.1.15,2013-04-16 00:05:00,
2013-04-15 17:15:00,61.8,39.1,29.92,WNW,300,9.0,17.0,43,0.00,,,0.00,Wunderground v.1.15,2013-04-16 00:15:00,
2013-04-15 17:20:00,62.2,38.8,29.92,NNW,331,8.0,17.0,42,0.00,,,0.00,Wunderground v.1.15,2013-04-16 00:20:00,
2013-04-15 17:30:00,61.7,39.0,29.93,NNW,339,8.0,17.0,43,0.00,,,0.00,Wunderground v.1.15,2013-04-16 00:30:00,
2013-04-15 17:35:00,61.1,39.0,29.93,North,352,9.0,17.0,44,0.00,,,0.00,Wunderground v.1.15,2013-04-16 00:35:00,
2013-04-15 17:45:00,60.1,39.8,29.93,NNW,329,11.0,17.0,47,0.00,,,0.00,Wunderground v.1.15,2013-04-16 00:45:00,
2013-04-15 17:50:00,60.5,39.6,29.93,North,356,9.0,9.0,46,0.00,,,0.00,Wunderground v.1.15,2013-04-16 00:50:00,
2013-04-15 18:00:00,60.8,39.9,29.93,NNW,329,7.0,17.0,46,0.00,,,0.00,Wunderground v.1.15,2013-04-16 01:00:00,
2013-04-15 18:05:00,60.4,39.5,29.93,NNW,331,7.0,18.0,46,0.00,,,0.00,Wunderground v.1.15,2013-04-16 01:05:00,
2013-04-15 18:15:00,59.2,40.0,29.93,NW,325,10.0,18.0,49,0.00,,,0.00,Wunderground v.1.15,2013-04-16 01:15:00,
2013-04-15 18:20:00,59.2,40.0,29.93,NW,307,9.0,18.0,49,0.00,,,0.00,Wunderground v.1.15,2013-04-16 01:20:00,
2013-04-15 18:25:00,59.4,39.7,29.93,WNW,300,6.0,18.0,48,0.00,,,0.00,Wunderground v.1.15,2013-04-16 01:25:00,
2013-04-15 18:30:00,59.4,39.7,29.93,NW,307,5.0,18.0,48,0.00,,,0.00,Wunderground v.1.15,2013-04-16 01:30:00,
2013-04-15 18:35:00,58.9,38.7,29.93,NW,321,6.0,18.0,47,0.00,,,0.00,Wunderground v.1.15,2013-04-16 01:35:00,
2013-04-15 18:45:00,58.2,39.1,29.93,NW,314,6.0,16.0,49,0.00,,,0.00,Wunderground v.1.15,2013-04-16 01:45:00,
2013-04-15 18:50:00,57.8,38.8,29.93,NW,304,7.0,16.0,49,0.00,,,0.00,Wunderground v.1.15,2013-04-16 01:50:00,
2013-04-15 18:55:00,57.6,38.0,29.93,NNW,336,6.0,16.0,48,0.00,,,0.00,Wunderground v.1.15,2013-04-16 01:55:00,
2013-04-15 19:05:00,55.9,39.5,29.93,WNW,302,9.0,9.0,54,0.00,,,0.00,Wunderground v.1.15,2013-04-16 02:05:00,
2013-04-15 19:10:00,55.4,38.5,29.93,NNW,328,8.0,8.0,53,0.00,,,0.00,Wunderground v.1.15,2013-04-16 02:10:00,
2013-04-15 19:20:00,55.3,38.0,29.92,NW,308,6.0,6.0,52,0.00,,,0.00,Wunderground v.1.15,2013-04-16 02:20:00,
2013-04-15 19:30:00,54.6,38.7,29.93,NW,304,6.0,6.0,55,0.00,,,0.00,Wunderground v.1.15,2013-04-16 02:30:00,
2013-04-15 19:35:00,54.2,38.8,29.93,NW,306,5.0,11.0,56,0.00,,,0.00,Wunderground v.1.15,2013-04-16 02:35:00,
2013-04-15 19:45:00,53.3,38.9,29.92,West,276,6.0,6.0,58,0.00,,,0.00,Wunderground v.1.15,2013-04-16 02:45:00,
2013-04-15 19:50:00,52.5,39.0,29.93,NNW,340,8.0,8.0,60,0.00,,,0.00,Wunderground v.1.15,2013-04-16 02:50:00,
2013-04-15 20:00:00,51.9,38.9,29.93,NW,315,9.0,9.0,61,0.00,,,0.00,Wunderground v.1.15,2013-04-16 03:00:00,
2013-04-15 20:10:00,51.5,38.5,29.94,NW,325,5.0,5.0,61,0.00,,,0.00,Wunderground v.1.15,2013-04-16 03:10:00,
2013-04-15 20:15:00,51.4,38.4,29.94,WNW,303,2.0,19.0,61,0.00,,,0.00,Wunderground v.1.15,2013-04-16 03:15:00,
2013-04-15 20:20:00,51.3,37.9,29.94,WNW,292,2.0,19.0,60,0.00,,,0.00,Wunderground v.1.15,2013-04-16 03:20:00,
2013-04-15 20:30:00,51.2,38.2,29.93,NW,321,2.0,2.0,61,0.00,,,0.00,Wunderground v.1.15,2013-04-16 03:30:00,
2013-04-15 20:35:00,50.8,38.2,29.93,WNW,290,3.0,3.0,62,0.00,,,0.00,Wunderground v.1.15,2013-04-16 03:35:00,
2013-04-15 20:40:00,50.6,37.6,29.94,NW,323,3.0,13.0,61,0.00,,,0.00,Wunderground v.1.15,2013-04-16 03:40:00,
2013-04-15 20:45:00,50.3,38.2,29.94,NW,316,3.0,13.0,63,0.00,,,0.00,Wunderground v.1.15,2013-04-16 03:45:00,
2013-04-15 20:50:00,50.1,38.0,29.94,NW,312,4.0,13.0,63,0.00,,,0.00,Wunderground v.1.15,2013-04-16 03:50:00,
2013-04-15 21:00:00,49.8,38.1,29.94,NW,307,9.0,9.0,64,0.00,,,0.00,Wunderground v.1.15,2013-04-16 04:00:00,
2013-04-15 21:05:00,49.9,37.4,29.94,NW,304,6.0,16.0,62,0.00,,,0.00,Wunderground v.1.15,2013-04-16 04:05:00,
2013-04-15 21:15:00,48.9,38.4,29.94,NNW,343,8.0,16.0,67,0.00,,,0.00,Wunderground v.1.15,2013-04-16 04:15:00,
2013-04-15 21:20:00,48.6,38.5,29.95,WNW,302,8.0,16.0,68,0.00,,,0.00,Wunderground v.1.15,2013-04-16 04:20:00,
2013-04-15 21:25:00,48.3,38.6,29.95,NW,319,7.0,16.0,69,0.00,,,0.00,Wunderground v.1.15,2013-04-16 04:25:00,
2013-04-15 21:30:00,48.2,38.1,29.95,WNW,296,8.0,16.0,68,0.00,,,0.00,Wunderground v.1.15,2013-04-16 04:30:00,
2013-04-15 21:35:00,48.9,38.0,29.95,NW,321,7.0,20.0,66,0.00,,,0.00,Wunderground v.1.15,2013-04-16 04:35:00,
2013-04-15 21:40:00,48.9,37.6,29.95,WNW,300,7.0,20.0,65,0.00,,,0.00,Wunderground v.1.15,2013-04-16 04:40:00,
2013-04-15 21:45:00,48.7,37.8,29.95,NW,310,7.0,20.0,66,0.00,,,0.00,Wunderground v.1.15,2013-04-16 04:45:00,
2013-04-15 21:50:00,48.4,37.6,29.95,NNW,341,6.0,6.0,66,0.00,,,0.00,Wunderground v.1.15,2013-04-16 04:50:00,
2013-04-15 22:00:00,47.9,37.8,29.96,NW,305,7.0,7.0,68,0.00,,,0.00,Wunderground v.1.15,2013-04-16 05:00:00,
2013-04-15 22:05:00,47.7,38.0,29.96,NW,320,6.0,14.0,69,0.00,,,0.00,Wunderground v.1.15,2013-04-16 05:05:00,
2013-04-15 22:15:00,47.2,38.3,29.95,NW,304,5.0,17.0,71,0.00,,,0.00,Wunderground v.1.15,2013-04-16 05:15:00,
2013-04-15 22:20:00,47.0,38.1,29.96,NW,323,5.0,5.0,71,0.00,,,0.00,Wunderground v.1.15,2013-04-16 05:20:00,
2013-04-15 22:30:00,46.9,38.0,29.96,NW,324,7.0,17.0,71,0.00,,,0.00,Wunderground v.1.15,2013-04-16 05:30:00,
2013-04-15 22:35:00,46.7,37.8,29.96,NNW,340,6.0,17.0,71,0.00,,,0.00,Wunderground v.1.15,2013-04-16 05:35:00,
2013-04-15 22:40:00,46.5,38.3,29.96,North,356,5.0,5.0,73,0.00,,,0.00,Wunderground v.1.15,2013-04-16 05:40:00,
2013-04-15 22:45:00,46.4,37.9,29.95,NNE,22,6.0,6.0,72,0.00,,,0.00,Wunderground v.1.15,2013-04-16 05:45:00,
2013-04-15 22:50:00,46.3,38.1,29.96,NW,326,6.0,16.0,73,0.00,,,0.00,Wunderground v.1.15,2013-04-16 05:50:00,
2013-04-15 23:00:00,46.7,37.4,29.95,North,358,4.0,16.0,70,0.00,,,0.00,Wunderground v.1.15,2013-04-16 06:00:00,
2013-04-15 23:05:00,46.6,37.7,29.96,NNW,348,4.0,17.0,71,0.00,,,0.00,Wunderground v.1.15,2013-04-16 06:05:00,
2013-04-15 23:15:00,46.3,37.4,29.96,NW,304,6.0,17.0,71,0.00,,,0.00,Wunderground v.1.15,2013-04-16 06:15:00,
2013-04-15 23:20:00,46.3,37.4,29.96,WNW,292,7.0,7.0,71,0.00,,,0.00,Wunderground v.1.15,2013-04-16 06:20:00,
2013-04-15 23:30:00,46.0,37.1,29.96,NNW,333,6.0,17.0,71,0.00,,,0.00,Wunderground v.1.15,2013-04-16 06:30:00,
2013-04-15 23:35:00,46.1,36.9,29.96,North,358,6.0,17.0,70,0.00,,,0.00,Wunderground v.1.15,2013-04-16 06:35:00,
2013-04-15 23:45:00,46.9,36.5,29.96,North,349,4.0,14.0,67,0.00,,,0.00,Wunderground v.1.15,2013-04-16 06:45:00,
2013-04-15 23:50:00,46.8,36.0,29.96,NNW,337,5.0,14.0,66,0.00,,,0.00,Wunderground v.1.15,2013-04-16 06:50:00,